Time;durP1;ratioP1;P1;durP2;ratioP2;P2;SDS_P1;SDS_P2;PMS_P1;PMS_P2;Temp;Humidity;BMP_temperature;BMP_pressure;BME280_temperature;BME280_humidity;BME280_pressure;Samples;Min_cycle;Max_cycle;Signal;HPM_P1;HPM_P2
2023/03/29 00:01:58;;;;;;;7.57;3.13;;;;;;;4.98;86.38;101655.66;5061315;28;20047;-75
2023/03/29 00:04:26;;;;;;;5.22;2.70;;;;;;;5.01;86.54;101654.81;5046746;28;20059;-74
2023/03/29 00:06:55;;;;;;;5.10;2.60;;;;;;;5.00;86.63;101653.06;5067902;28;20424;-75
2023/03/29 00:09:22;;;;;;;9.98;2.72;;;;;;;5.02;86.25;101651.31;5069604;28;20498;-78
2023/03/29 00:11:47;;;;;;;4.45;2.63;;;;;;;5.03;86.37;101642.63;5051483;28;20494;-78
2023/03/29 00:14:13;;;;;;;4.43;2.80;;;;;;;5.01;86.54;101639.94;5067904;28;20028;-78
2023/03/29 00:16:38;;;;;;;8.77;2.90;;;;;;;5.06;86.31;101642.66;5069034;28;20127;-78
2023/03/29 00:19:04;;;;;;;7.85;2.45;;;;;;;5.08;85.67;101640.94;5070928;28;20046;-78
2023/03/29 00:21:30;;;;;;;7.57;2.55;;;;;;;5.08;86.22;101640.94;5071403;28;20060;-78
2023/03/29 00:23:56;;;;;;;4.32;2.50;;;;;;;5.10;86.19;101633.97;5053705;28;20111;-78
2023/03/29 00:26:24;;;;;;;7.22;2.50;;;;;;;5.09;86.31;101632.19;5071804;28;20078;-78
2023/03/29 00:28:49;;;;;;;7.35;2.45;;;;;;;5.08;86.48;101631.31;5069520;28;20057;-78
2023/03/29 00:31:16;;;;;;;4.40;2.58;;;;;;;5.06;86.18;101617.28;5070202;28;20541;-78
2023/03/29 00:33:44;;;;;;;6.00;2.50;;;;;;;5.13;85.18;101627.00;5071363;28;20035;-78
2023/03/29 00:36:11;;;;;;;4.80;2.53;;;;;;;5.10;85.56;101616.47;5053480;28;20093;-78
2023/03/29 00:38:37;;;;;;;3.75;2.50;;;;;;;5.12;85.95;101625.25;5069530;28;20064;-78
2023/03/29 00:41:05;;;;;;;5.13;2.67;;;;;;;5.13;85.61;101626.13;5069691;28;20416;-78
2023/03/29 00:43:50;;;;;;;6.65;2.78;;;;;;;5.17;84.80;101622.69;5070805;28;20102;-78
2023/03/29 00:46:16;;;;;;;10.52;2.65;;;;;;;5.16;85.17;101623.53;5060828;28;20490;-78
2023/03/29 00:48:41;;;;;;;1.83;1.58;;;;;;;5.19;85.17;101615.69;5064396;28;20021;-78
2023/03/29 00:51:13;;;;;;;3.85;2.20;;;;;;;5.21;84.87;101611.34;5042711;28;20051;-79
2023/03/29 00:53:47;;;;;;;5.32;2.33;;;;;;;5.17;84.15;101605.19;5085619;28;20028;-78
2023/03/29 00:56:40;;;;;;;8.80;3.05;;;;;;;5.22;84.61;101600.00;5071127;28;20036;-78
2023/03/29 00:59:12;;;;;;;5.60;2.50;;;;;;;5.24;84.53;101599.97;5076157;28;20051;-78
2023/03/29 01:01:53;;;;;;;4.85;2.30;;;;;;;5.24;84.49;101589.47;5069873;28;20551;-78
2023/03/29 01:04:28;;;;;;;5.40;2.67;;;;;;;5.27;83.79;101595.66;5069180;28;20037;-78
2023/03/29 01:07:21;;;;;;;6.45;2.75;;;;;;;5.29;83.89;101588.69;5068956;28;20459;-78
2023/03/29 01:09:54;;;;;;;5.65;2.30;;;;;;;5.33;84.12;101589.59;5059267;28;20056;-78
2023/03/29 01:12:26;;;;;;;8.40;2.50;;;;;;;5.41;83.32;101589.69;5073570;28;20039;-79
2023/03/29 01:15:00;;;;;;;5.50;2.65;;;;;;;5.38;83.51;101590.53;5071794;28;20039;-78
2023/03/29 01:17:30;;;;;;;6.45;2.58;;;;;;;5.36;84.90;101579.13;5060880;28;20045;-78
2023/03/29 01:20:26;;;;;;;6.88;2.78;;;;;;;5.37;84.80;101591.41;5057788;28;20032;-79
2023/03/29 01:23:20;;;;;;;7.65;2.78;;;;;;;5.37;84.84;101579.16;5073847;28;20028;-78
2023/03/29 01:25:59;;;;;;;7.38;3.30;;;;;;;5.37;85.63;101580.91;5075063;28;20036;-78
2023/03/29 01:28:30;;;;;;;5.70;2.83;;;;;;;5.37;86.81;101584.41;5074715;28;20037;-79
2023/03/29 01:31:07;;;;;;;4.70;2.88;;;;;;;5.38;86.73;101580.03;5073830;28;20028;-78
2023/03/29 01:33:39;;;;;;;6.38;2.53;;;;;;;5.42;86.65;101568.69;5073908;28;20578;-79
2023/03/29 01:36:26;;;;;;;7.63;2.97;;;;;;;5.38;87.08;101554.63;5075113;28;20115;-79
2023/03/29 01:38:56;;;;;;;5.00;2.80;;;;;;;5.34;87.82;101559.81;5074207;28;20044;-78
2023/03/29 01:41:33;;;;;;;8.35;2.72;;;;;;;5.34;88.80;101560.75;5073710;28;20690;-78
2023/03/29 01:44:11;;;;;;;5.60;2.85;;;;;;;5.35;89.01;101557.22;5073598;28;20092;-79
2023/03/29 01:46:51;;;;;;;7.38;3.13;;;;;;;5.34;89.41;101551.94;5074803;28;20058;-79
2023/03/29 01:50:06;;;;;;;5.63;3.28;;;;;;;5.37;89.60;101544.13;5069381;28;20483;-79
2023/03/29 01:52:39;;;;;;;6.72;3.28;;;;;;;5.31;90.60;101544.91;5053363;28;20040;-74
2023/03/29 01:55:13;;;;;;;7.15;2.88;;;;;;;5.32;90.94;101538.81;5061131;28;20033;-75
2023/03/29 01:57:43;;;;;;;6.07;2.33;;;;;;;5.35;90.27;101533.59;5071230;28;20074;-74
2023/03/29 02:00:15;;;;;;;8.15;2.92;;;;;;;5.34;90.78;101530.94;5071922;28;20060;-73
2023/03/29 02:02:44;;;;;;;9.52;2.70;;;;;;;5.35;90.61;101533.59;5063444;28;20072;-73
2023/03/29 02:05:11;;;;;;;6.43;2.85;;;;;;;5.38;90.28;101533.63;5072547;28;20025;-74
2023/03/29 02:07:39;;;;;;;5.53;2.83;;;;;;;5.37;91.43;101539.75;5072951;28;20033;-74
2023/03/29 02:10:07;;;;;;;7.28;3.10;;;;;;;5.36;91.81;101522.22;5055669;28;20115;-75
2023/03/29 02:12:32;;;;;;;6.78;3.00;;;;;;;5.38;91.67;101525.75;5072281;28;20393;-74
2023/03/29 02:15:00;;;;;;;8.57;2.90;;;;;;;5.38;92.03;101524.88;5069161;28;20028;-74
2023/03/29 02:17:27;;;;;;;6.43;2.70;;;;;;;5.37;92.36;101521.38;5073584;28;20082;-73
2023/03/29 02:20:09;;;;;;;5.47;2.80;;;;;;;5.41;91.97;101508.25;5071511;28;20028;-73
2023/03/29 02:22:47;;;;;;;5.20;2.97;;;;;;;5.36;93.18;101508.22;5071237;28;20059;-74
2023/03/29 02:25:14;;;;;;;7.03;2.83;;;;;;;5.36;93.19;101506.44;5072190;28;20060;-74
2023/03/29 02:27:40;;;;;;;4.78;2.53;;;;;;;5.36;93.32;101498.56;5073105;28;20439;-74
2023/03/29 02:30:09;;;;;;;6.60;2.80;;;;;;;5.36;93.56;101498.56;5072163;28;20082;-74
2023/03/29 02:33:10;;;;;;;9.85;2.85;;;;;;;5.35;93.14;101494.19;5072365;28;20047;-74
2023/03/29 02:35:55;;;;;;;7.63;3.10;;;;;;;5.37;93.35;101491.59;5058040;28;20024;-74
2023/03/29 02:38:24;;;;;;;8.60;2.67;;;;;;;5.35;93.40;101491.56;5071490;28;20291;-74
2023/03/29 02:40:51;;;;;;;5.70;2.97;;;;;;;5.33;92.67;101482.78;5071754;28;20047;-74
2023/03/29 02:43:19;;;;;;;6.03;2.97;;;;;;;5.36;93.03;101488.06;5055659;28;20040;-75
2023/03/29 02:45:46;;;;;;;7.22;2.95;;;;;;;5.37;93.30;101488.97;5072770;28;20047;-75
2023/03/29 02:48:16;;;;;;;5.38;2.80;;;;;;;5.36;93.17;101482.81;5070562;28;20093;-75
2023/03/29 02:50:46;;;;;;;4.20;2.70;;;;;;;5.39;93.52;101475.00;5071860;28;20070;-75
2023/03/29 02:53:15;;;;;;;6.13;2.88;;;;;;;5.38;92.77;101469.72;5071860;28;20089;-75
2023/03/29 02:55:45;;;;;;;5.55;2.53;;;;;;;5.36;93.04;101461.81;5070727;28;20024;-75
2023/03/29 02:58:12;;;;;;;7.22;2.60;;;;;;;5.38;91.84;101467.09;5071169;28;20090;-75
2023/03/29 03:00:46;;;;;;;9.05;2.83;;;;;;;5.40;92.15;101465.34;5037734;28;20387;-75
2023/03/29 03:03:14;;;;;;;5.47;2.70;;;;;;;5.44;91.23;101463.63;5071643;28;20092;-73
2023/03/29 03:05:40;;;;;;;4.55;2.35;;;;;;;5.44;91.54;101469.78;5070780;28;20128;-73
2023/03/29 03:08:06;;;;;;;4.88;2.28;;;;;;;5.45;91.47;101468.91;5071328;28;20226;-73
2023/03/29 03:10:34;;;;;;;3.83;2.40;;;;;;;5.47;90.57;101458.41;5062443;28;20452;-73
2023/03/29 03:13:00;;;;;;;9.43;3.20;;;;;;;5.47;90.91;101464.56;5070761;28;20514;-73
2023/03/29 03:15:27;;;;;;;5.10;2.53;;;;;;;5.49;90.55;101461.91;5068608;28;20395;-73
2023/03/29 03:17:53;;;;;;;9.90;2.78;;;;;;;5.50;90.40;101458.44;5065576;28;20036;-73
2023/03/29 03:20:21;;;;;;;6.75;2.85;;;;;;;5.52;90.28;101454.09;5063337;28;20045;-73
2023/03/29 03:22:48;;;;;;;6.22;2.90;;;;;;;5.53;89.48;101454.06;5063611;28;20037;-73
2023/03/29 03:25:19;;;;;;;6.55;2.80;;;;;;;5.54;89.58;101444.47;5063844;28;20024;-74
2023/03/29 03:27:47;;;;;;;5.13;2.92;;;;;;;5.54;89.44;101453.22;5057943;28;20025;-73
2023/03/29 03:30:13;;;;;;;6.60;2.60;;;;;;;5.55;89.54;101443.59;5054000;28;20132;-73
2023/03/29 03:33:02;;;;;;;4.03;2.50;;;;;;;5.57;89.16;101440.13;5031728;28;20044;-74
2023/03/29 03:35:46;;;;;;;3.30;2.30;;;;;;;5.60;89.01;101436.63;5064619;28;20571;-74
2023/03/29 03:38:14;;;;;;;5.47;2.50;;;;;;;5.62;88.59;101439.28;5061896;28;20638;-74
2023/03/29 03:40:51;;;;;;;4.18;2.70;;;;;;;5.60;88.48;101436.63;5047536;28;20048;-75
2023/03/29 03:43:17;;;;;;;8.57;3.00;;;;;;;5.67;88.04;101445.44;5062200;28;20052;-74
2023/03/29 03:45:44;;;;;;;5.20;2.20;;;;;;;5.67;87.31;101440.19;5054144;28;20479;-78
2023/03/29 03:48:19;;;;;;;7.78;2.70;;;;;;;5.69;87.51;101443.72;5037806;28;20036;-79
2023/03/29 03:50:50;;;;;;;3.92;2.53;;;;;;;5.70;87.63;101454.22;5049511;28;20033;-78
2023/03/29 03:53:16;;;;;;;4.68;2.58;;;;;;;5.69;87.14;101449.84;5062910;28;20544;-78
2023/03/29 03:56:07;;;;;;;6.50;2.60;;;;;;;5.72;87.01;101436.72;5033854;28;20041;-79
2023/03/29 03:58:38;;;;;;;5.18;2.30;;;;;;;5.75;87.08;101449.88;5069436;28;20390;-79
2023/03/29 04:01:05;;;;;;;5.15;2.45;;;;;;;5.75;86.86;101449.88;5048414;28;20115;-79
2023/03/29 04:03:40;;;;;;;4.32;2.67;;;;;;;5.78;86.88;101446.41;5039765;28;20032;-79
2023/03/29 04:06:08;;;;;;;9.52;2.90;;;;;;;5.78;86.29;101441.13;5055861;28;20036;-79
2023/03/29 04:09:08;;;;;;;5.65;2.58;;;;;;;5.76;86.43;101433.25;5064921;28;20036;-79
2023/03/29 04:11:40;;;;;;;5.60;2.38;;;;;;;5.76;85.75;101435.91;5046871;28;20036;-79
2023/03/29 04:14:06;;;;;;;6.95;2.95;;;;;;;5.79;86.02;101429.78;5066049;28;20047;-79
2023/03/29 04:16:58;;;;;;;7.03;2.70;;;;;;;5.79;85.95;101425.41;5065985;28;20036;-79
2023/03/29 04:19:46;;;;;;;10.63;3.10;;;;;;;5.85;84.92;101426.31;5053094;28;20065;-79
2023/03/29 04:22:12;;;;;;;6.38;2.67;;;;;;;5.87;85.61;101421.94;5066623;28;20044;-79
2023/03/29 04:24:37;;;;;;;4.80;2.40;;;;;;;5.84;85.05;101425.44;5042906;28;20039;-79
2023/03/29 04:27:28;;;;;;;5.45;2.85;;;;;;;5.84;84.68;101420.19;5056814;28;20028;-79
2023/03/29 04:29:57;;;;;;;7.05;3.67;;;;;;;5.81;84.70;101407.91;5039258;28;20045;-79
2023/03/29 04:32:43;;;;;;;5.65;2.67;;;;;;;5.87;84.92;101419.31;5022609;28;20140;-79
2023/03/29 04:35:09;;;;;;;6.85;3.00;;;;;;;5.88;84.66;101415.81;5064502;28;20033;-79
2023/03/29 04:37:39;;;;;;;5.97;2.40;;;;;;;5.86;85.14;101413.19;5047702;28;20136;-79
2023/03/29 04:40:13;;;;;;;7.05;2.83;;;;;;;5.87;84.84;101409.66;5064918;28;20044;-78
2023/03/29 04:43:01;;;;;;;5.60;2.63;;;;;;;5.88;84.69;101416.69;5060950;28;20483;-78
2023/03/29 04:45:27;;;;;;;5.63;2.72;;;;;;;5.90;83.86;101420.19;5037229;28;20036;-78
2023/03/29 04:48:10;;;;;;;8.73;3.30;;;;;;;5.92;84.94;101413.22;5052478;28;20037;-77
2023/03/29 04:50:40;;;;;;;6.47;2.45;;;;;;;5.94;84.54;101418.53;5061126;28;20131;-78
2023/03/29 04:53:06;;;;;;;6.28;3.05;;;;;;;5.93;84.02;101414.94;5042121;28;20491;-78
2023/03/29 04:55:32;;;;;;;8.60;2.97;;;;;;;5.97;83.96;101400.13;5061846;28;20032;-78
2023/03/29 04:58:01;;;;;;;5.80;2.72;;;;;;;5.98;83.84;101412.41;5065097;28;20028;-78
2023/03/29 05:00:34;;;;;;;5.13;2.95;;;;;;;5.98;84.27;101397.53;5062112;28;20047;-78
2023/03/29 05:03:00;;;;;;;11.45;3.25;;;;;;;6.00;83.51;101400.13;5060306;28;20123;-77
2023/03/29 05:05:30;;;;;;;6.40;2.92;;;;;;;6.03;83.83;101402.78;5033630;28;20045;-78
2023/03/29 05:07:59;;;;;;;;;;;;;;;6.08;84.08;101401.06;5070265;28;20029;-78
2023/03/29 05:10:32;;;;;;;5.85;3.15;;;;;;;6.03;83.98;101397.53;5065950;28;19973;-78
2023/03/29 05:12:58;;;;;;;11.07;3.08;;;;;;;6.06;84.51;101396.66;5053957;28;20466;-78
2023/03/29 05:15:23;;;;;;;8.10;2.88;;;;;;;6.09;84.17;101402.84;5059533;28;20165;-78
2023/03/29 05:17:49;;;;;;;6.18;2.88;;;;;;;6.14;84.14;101397.59;5070249;28;20043;-78
2023/03/29 05:20:16;;;;;;;6.57;2.75;;;;;;;6.17;83.62;101392.34;5069682;28;20339;-78
2023/03/29 05:22:43;;;;;;;6.10;2.72;;;;;;;6.16;83.09;101394.09;5069959;28;20376;-78
2023/03/29 05:25:16;;;;;;;10.20;3.03;;;;;;;6.19;83.82;101395.88;5069687;28;20403;-78
2023/03/29 05:27:42;;;;;;;7.72;3.00;;;;;;;6.20;83.70;101397.63;5069492;28;20024;-78
2023/03/29 05:30:10;;;;;;;6.70;2.92;;;;;;;6.24;83.46;101408.16;5043751;28;20052;-78
2023/03/29 05:32:56;;;;;;;6.57;2.88;;;;;;;6.30;83.37;101406.44;5050575;28;20078;-78
2023/03/29 05:35:25;;;;;;;5.50;3.38;;;;;;;6.29;83.13;101410.81;5052576;28;20454;-78
2023/03/29 05:37:51;;;;;;;7.10;3.22;;;;;;;6.29;83.87;101408.19;5066467;28;20028;-78
2023/03/29 05:40:16;;;;;;;6.82;2.70;;;;;;;6.32;83.35;101402.94;5048569;28;20102;-79
2023/03/29 05:43:02;;;;;;;8.30;3.00;;;;;;;6.35;82.94;101413.47;5070322;28;20032;-78
2023/03/29 05:45:28;;;;;;;9.10;2.92;;;;;;;6.34;83.39;101409.09;5073942;28;20055;-78
2023/03/29 05:47:55;;;;;;;7.65;3.45;;;;;;;6.39;82.89;101409.13;5069212;28;20425;-78
2023/03/29 05:50:20;;;;;;;7.50;3.35;;;;;;;6.38;83.28;101418.78;5069364;28;20628;-78
2023/03/29 05:52:48;;;;;;;8.07;3.50;;;;;;;6.44;83.06;101413.53;5068912;28;20025;-78
2023/03/29 05:55:13;;;;;;;5.78;3.13;;;;;;;6.46;83.32;101419.66;5034550;28;20047;-78
2023/03/29 05:57:39;;;;;;;8.73;4.22;;;;;;;6.48;82.58;101417.06;5068154;28;20043;-78
2023/03/29 06:00:22;;;;;;;9.98;3.47;;;;;;;6.54;82.98;101418.81;5055879;28;20061;-78
2023/03/29 06:02:54;;;;;;;10.02;3.15;;;;;;;6.57;83.03;101421.47;5036992;28;20480;-78
2023/03/29 06:05:22;;;;;;;7.43;3.30;;;;;;;6.57;83.01;101422.34;5058686;28;20200;-73
2023/03/29 06:07:58;;;;;;;9.48;3.33;;;;;;;6.65;83.67;101425.00;5072115;28;20024;-74
2023/03/29 06:10:44;;;;;;;6.47;3.20;;;;;;;6.70;83.25;101419.75;5075648;28;20068;-73
2023/03/29 06:13:25;;;;;;;7.50;2.97;;;;;;;6.70;83.68;101417.13;5043587;28;20056;-73
2023/03/29 06:15:51;;;;;;;9.05;3.80;;;;;;;6.71;83.93;101411.88;5071728;28;20441;-73
2023/03/29 06:18:19;;;;;;;4.90;3.17;;;;;;;6.74;83.24;101413.63;5055015;28;20086;-74
2023/03/29 06:20:49;;;;;;;7.47;3.38;;;;;;;6.76;83.45;101419.78;5072446;28;20443;-78
2023/03/29 06:23:19;;;;;;;7.80;4.00;;;;;;;6.76;82.88;101420.66;5056712;28;20072;-78
2023/03/29 06:25:44;;;;;;;9.88;4.38;;;;;;;6.81;82.95;101416.28;5070308;28;20028;-77
2023/03/29 06:28:13;;;;;;;7.47;3.97;;;;;;;6.83;83.64;101425.06;5064919;28;20498;-78
2023/03/29 06:30:40;;;;;;;9.20;3.50;;;;;;;6.87;83.73;101425.94;5072502;28;20495;-78
2023/03/29 06:33:07;;;;;;;12.52;4.45;;;;;;;6.89;83.34;101421.56;5072432;28;20104;-78
2023/03/29 06:35:48;;;;;;;10.88;4.30;;;;;;;6.94;83.81;101426.84;5072308;28;20082;-78
2023/03/29 06:38:18;;;;;;;13.55;4.72;;;;;;;6.96;83.79;101425.97;5072385;28;20040;-77
2023/03/29 06:41:11;;;;;;;11.25;5.60;;;;;;;6.97;83.93;101416.31;5073124;28;20465;-78
2023/03/29 06:44:16;;;;;;;12.57;5.22;;;;;;;7.00;83.88;101409.31;5059318;28;20044;-78
2023/03/29 06:46:53;;;;;;;9.00;4.32;;;;;;;7.04;83.73;101411.06;5055422;28;20044;-78
2023/03/29 06:49:19;;;;;;;9.50;3.88;;;;;;;7.08;83.83;101419.88;5054693;28;20484;-78
2023/03/29 06:52:02;;;;;;;10.43;3.58;;;;;;;7.09;83.84;101405.81;5066740;28;20068;-79
2023/03/29 06:54:27;;;;;;;8.65;3.70;;;;;;;7.18;84.04;101420.75;5051634;28;20090;-78
2023/03/29 06:57:00;;;;;;;7.82;3.58;;;;;;;7.22;83.77;101422.50;5052570;28;20040;-78
2023/03/29 06:59:27;;;;;;;6.82;3.60;;;;;;;7.25;83.65;101423.41;5064404;28;20025;-78
2023/03/29 07:02:14;;;;;;;11.38;3.50;;;;;;;7.27;84.04;101416.38;5062962;28;20021;-78
2023/03/29 07:04:46;;;;;;;10.35;3.92;;;;;;;7.35;83.83;101426.06;5055677;28;20123;-78
2023/03/29 07:07:19;;;;;;;7.63;3.95;;;;;;;7.40;84.55;101427.81;5068339;28;20463;-78
2023/03/29 07:09:52;;;;;;;10.57;3.75;;;;;;;7.40;83.77;101426.94;5035987;28;20057;-78
2023/03/29 07:12:30;;;;;;;9.85;4.22;;;;;;;7.45;84.02;101426.03;5063954;28;20051;-77
2023/03/29 07:15:01;;;;;;;7.10;3.95;;;;;;;7.48;84.39;101422.53;5055332;28;20089;-78
2023/03/29 07:17:47;;;;;;;9.27;3.60;;;;;;;7.54;84.48;101430.41;5062236;28;20055;-78
2023/03/29 07:20:14;;;;;;;9.23;3.88;;;;;;;7.59;83.68;101423.44;5060720;28;20162;-78
2023/03/29 07:22:57;;;;;;;9.80;3.97;;;;;;;7.63;83.79;101430.44;5059618;28;20538;-79
2023/03/29 07:25:24;;;;;;;8.52;3.95;;;;;;;7.68;84.26;101431.31;5048949;28;20132;-78
2023/03/29 07:27:51;;;;;;;8.48;3.92;;;;;;;7.71;84.10;101420.75;5070616;28;20021;-78
2023/03/29 07:30:27;;;;;;;7.97;4.60;;;;;;;7.78;84.28;101431.31;5072658;28;20052;-78
2023/03/29 07:32:57;;;;;;;8.27;4.20;;;;;;;7.83;83.83;101437.44;5055257;28;20032;-78
2023/03/29 07:35:37;;;;;;;11.15;4.22;;;;;;;7.85;84.46;101439.22;5071513;28;20439;-78
2023/03/29 07:38:02;;;;;;;7.45;3.95;;;;;;;7.89;84.47;101446.25;5064716;28;20040;-79
2023/03/29 07:40:28;;;;;;;9.18;4.38;;;;;;;7.90;84.07;101444.47;5054758;28;20376;-74
2023/03/29 07:42:57;;;;;;;5.43;3.42;;;;;;;7.97;84.53;101457.66;5071484;28;20119;-74
2023/03/29 07:45:27;;;;;;;10.32;4.20;;;;;;;8.03;84.43;101466.44;5054241;28;20016;-74
2023/03/29 07:47:58;;;;;;;8.90;3.90;;;;;;;8.06;83.94;101464.69;5071115;28;20056;-74
2023/03/29 07:50:27;;;;;;;11.57;4.25;;;;;;;8.10;84.93;101460.28;5071075;28;20029;-74
2023/03/29 07:53:00;;;;;;;8.68;4.00;;;;;;;8.12;84.93;101456.75;5071559;28;20024;-77
2023/03/29 07:55:26;;;;;;;12.55;4.07;;;;;;;8.14;85.27;101455.00;5070641;28;20050;-74
2023/03/29 07:57:57;;;;;;;7.88;4.10;;;;;;;8.18;85.59;101458.50;5050458;28;20029;-74
2023/03/29 08:00:23;;;;;;;8.60;4.35;;;;;;;8.23;85.12;101461.13;5066730;28;20511;-74
2023/03/29 08:03:11;;;;;;;13.50;3.90;;;;;;;8.26;85.54;101451.47;5071136;28;20124;-74
2023/03/29 08:05:38;;;;;;;9.48;4.50;;;;;;;8.28;86.39;101452.31;5070428;28;20032;-74
2023/03/29 08:08:09;;;;;;;11.05;4.80;;;;;;;8.35;86.36;101451.41;5071096;28;20086;-74
2023/03/29 08:10:56;;;;;;;10.32;4.45;;;;;;;8.42;86.47;101456.72;5070732;28;20155;-74
2023/03/29 08:13:36;;;;;;;10.00;4.15;;;;;;;8.47;86.13;101460.22;5055901;28;20032;-74
2023/03/29 08:16:25;;;;;;;11.88;4.80;;;;;;;8.49;86.07;101458.47;5063230;28;20040;-74
2023/03/29 08:18:58;;;;;;;11.65;4.63;;;;;;;8.49;86.94;101450.53;5070462;28;20078;-74
2023/03/29 08:21:33;;;;;;;8.45;4.18;;;;;;;8.48;86.66;101457.59;5054398;28;20495;-74
2023/03/29 08:23:58;;;;;;;8.73;4.40;;;;;;;8.48;87.89;101456.69;5070874;28;20123;-74
2023/03/29 08:26:32;;;;;;;9.40;3.95;;;;;;;8.51;87.89;101454.06;5070633;28;20052;-75
2023/03/29 08:28:58;;;;;;;11.93;4.75;;;;;;;8.44;88.47;101437.34;5070811;28;20044;-75
2023/03/29 08:31:26;;;;;;;12.45;4.28;;;;;;;8.44;89.59;101431.19;5037176;28;20063;-75
2023/03/29 08:33:52;;;;;;;13.07;4.10;;;;;;;8.55;89.38;101439.94;5070606;28;20032;-75
2023/03/29 08:36:39;;;;;;;10.73;4.95;;;;;;;8.61;89.97;101435.53;5040446;28;20325;-80
2023/03/29 08:39:12;;;;;;;9.40;5.05;;;;;;;8.70;89.38;101429.31;5055182;28;20044;-79
2023/03/29 08:41:57;;;;;;;7.68;4.22;;;;;;;8.79;89.86;101433.69;5070787;28;20510;-79
2023/03/29 08:44:22;;;;;;;;;;;;;;;8.91;87.78;101432.75;5057291;28;20064;-80
2023/03/29 08:46:59;;;;;;;9.60;4.10;;;;;;;8.86;89.59;101424.84;5070594;28;19909;-79
2023/03/29 08:49:38;;;;;;;11.40;4.45;;;;;;;8.92;90.03;101443.28;5057558;28;20426;-79
2023/03/29 08:52:30;;;;;;;7.47;4.50;;;;;;;8.94;89.42;101436.22;5070432;28;20033;-79
2023/03/29 08:54:59;;;;;;;10.88;4.45;;;;;;;8.99;89.02;101429.16;5060192;28;20132;-81
2023/03/29 08:57:46;;;;;;;8.63;4.60;;;;;;;9.10;89.25;101423.84;5071799;28;20090;-80
2023/03/29 09:00:27;;;;;;;11.60;4.80;;;;;;;9.22;89.48;101423.75;5054684;28;20115;-80
2023/03/29 09:02:56;;;;;;;16.23;4.57;;;;;;;9.37;88.30;101424.50;5070183;28;20074;-80
2023/03/29 09:05:50;;;;;;;11.95;5.10;;;;;;;9.43;88.60;101420.06;5069435;28;20044;-80
2023/03/29 09:08:23;;;;;;;9.82;4.72;;;;;;;9.54;88.84;101422.59;5058409;28;20036;-81
2023/03/29 09:11:10;;;;;;;10.55;4.85;;;;;;;9.65;88.32;101428.69;5053985;28;20094;-80
2023/03/29 09:14:05;;;;;;;8.00;4.95;;;;;;;9.77;88.07;101418.91;5070323;28;20391;-80
2023/03/29 09:17:10;;;;;;;8.00;4.55;;;;;;;9.90;87.25;101425.81;5061617;28;20051;-80
2023/03/29 09:19:47;;;;;;;10.02;5.03;;;;;;;9.95;88.28;101431.06;5067601;28;20078;-80
2023/03/29 09:22:39;;;;;;;11.73;5.80;;;;;;;9.94;88.22;101440.78;5070574;28;20430;-81
2023/03/29 09:25:14;;;;;;;11.80;5.90;;;;;;;9.91;88.16;101435.50;5056477;28;20178;-80
2023/03/29 09:28:13;;;;;;;8.45;5.47;;;;;;;9.91;87.92;101427.56;5070066;28;20029;-80
2023/03/29 09:31:00;;;;;;;11.77;5.20;;;;;;;9.95;88.74;101412.56;5079735;28;20116;-80
2023/03/29 09:33:49;;;;;;;10.25;5.60;;;;;;;10.06;88.14;101422.13;5072737;28;20068;-79
2023/03/29 09:36:27;;;;;;;12.15;5.75;;;;;;;10.14;87.79;101416.75;5074033;28;20028;-81
2023/03/29 09:38:54;;;;;;;11.23;5.15;;;;;;;10.12;88.11;101422.06;5074210;28;20480;-80
2023/03/29 09:41:28;;;;;;;14.63;6.82;;;;;;;10.02;87.91;101427.47;5067642;28;20034;-80
2023/03/29 09:43:58;;;;;;;11.40;4.85;;;;;;;10.05;87.90;101430.09;5070599;28;20024;-80
2023/03/29 09:46:35;;;;;;;11.05;5.80;;;;;;;10.00;88.76;101426.59;5073787;28;20454;-80
2023/03/29 09:49:05;;;;;;;11.88;5.63;;;;;;;10.01;88.75;101428.34;5073901;28;20100;-80
2023/03/29 09:51:33;;;;;;;13.25;5.68;;;;;;;9.96;89.31;101435.47;5074109;28;20127;-80
2023/03/29 09:53:59;;;;;;;13.60;6.50;;;;;;;9.89;90.20;101434.63;5073765;28;20024;-80
2023/03/29 09:56:51;;;;;;;14.57;6.00;;;;;;;9.82;91.89;101435.59;5060889;28;20086;-80
2023/03/29 09:59:19;;;;;;;13.35;5.97;;;;;;;9.77;92.97;101437.41;5056677;28;20066;-80
2023/03/29 10:01:45;;;;;;;14.77;6.60;;;;;;;9.74;93.52;101437.41;5050031;28;20029;-80
2023/03/29 10:04:15;;;;;;;11.63;5.65;;;;;;;9.74;93.40;101437.41;5082037;28;20040;-81
2023/03/29 10:06:50;;;;;;;14.23;6.65;;;;;;;9.71;94.16;101434.81;5082662;28;20037;-80
2023/03/29 10:09:22;;;;;;;12.10;6.32;;;;;;;9.72;94.18;101441.84;5059847;28;20024;-80
2023/03/29 10:11:55;;;;;;;12.23;6.53;;;;;;;9.72;94.16;101432.16;5057263;28;20118;-80
2023/03/29 10:14:35;;;;;;;12.68;5.68;;;;;;;9.80;94.59;101427.69;5072581;28;20036;-80
2023/03/29 10:17:04;;;;;;;9.63;6.03;;;;;;;9.78;95.29;101425.94;5059603;28;20045;-80
2023/03/29 10:19:34;;;;;;;12.25;5.80;;;;;;;9.86;95.00;101418.78;5069715;28;20078;-80
2023/03/29 10:22:24;;;;;;;12.75;6.18;;;;;;;9.99;94.70;101423.09;5067089;28;20069;-80
2023/03/29 10:24:52;;;;;;;13.73;5.95;;;;;;;9.99;95.24;101422.19;5055883;28;20067;-80
2023/03/29 10:27:25;;;;;;;11.43;6.30;;;;;;;10.05;94.91;101424.78;5072727;28;20017;-80
2023/03/29 10:29:51;;;;;;;14.10;6.30;;;;;;;10.09;95.32;101419.47;5073685;28;20020;-80
2023/03/29 10:32:37;;;;;;;13.27;6.72;;;;;;;10.23;95.45;101414.00;5073886;28;20400;-80
2023/03/29 10:35:41;;;;;;;11.52;5.75;;;;;;;10.29;93.88;101419.25;5073830;28;20028;-80
2023/03/29 10:38:13;;;;;;;12.93;5.78;;;;;;;10.27;93.92;101410.44;5073027;28;20508;-80
2023/03/29 10:40:50;;;;;;;9.45;5.75;;;;;;;10.25;94.17;101412.22;5073942;28;20360;-80
2023/03/29 10:43:16;;;;;;;14.48;6.35;;;;;;;10.21;95.10;101413.16;5073499;28;20387;-80
2023/03/29 10:45:42;;;;;;;10.98;6.03;;;;;;;10.25;96.33;101412.22;5071836;28;20020;-80
2023/03/29 10:48:12;;;;;;;14.27;5.75;;;;;;;10.26;95.56;101402.50;5073293;28;20489;-79
2023/03/29 10:50:38;;;;;;;15.88;6.03;;;;;;;10.23;95.51;101390.16;5073664;28;20035;-80
2023/03/29 10:53:31;;;;;;;9.82;6.55;;;;;;;10.32;96.74;101389.22;5073630;28;20390;-80
2023/03/29 10:56:24;;;;;;;9.80;5.57;;;;;;;10.46;96.37;101384.66;5058306;28;20306;-80
2023/03/29 10:59:06;;;;;;;13.27;6.07;;;;;;;10.64;95.81;101375.56;5072467;28;20071;-79
2023/03/29 11:01:53;;;;;;;8.38;5.43;;;;;;;10.70;93.24;101335.75;5071845;28;20187;-82
2023/03/29 11:04:41;;;;;;;12.10;6.05;;;;;;;11.10;93.24;101374.94;5058438;28;20039;-80
2023/03/29 11:07:31;;;;;;;7.95;5.72;;;;;;;11.23;92.70;101372.06;5073393;28;20071;-80
2023/03/29 11:10:16;;;;;;;9.73;6.00;;;;;;;11.24;90.51;101361.44;5063370;28;20036;-80
2023/03/29 11:12:48;;;;;;;13.60;6.05;;;;;;;11.25;90.49;101357.91;5074702;28;20060;-80
2023/03/29 11:15:26;;;;;;;13.73;5.72;;;;;;;11.29;91.14;101356.06;5055008;28;20112;-81
2023/03/29 11:18:26;;;;;;;11.70;6.20;;;;;;;11.33;90.29;101357.75;5076087;28;20357;-80
2023/03/29 11:21:04;;;;;;;10.88;5.70;;;;;;;11.46;90.58;101354.00;5074439;28;20475;-80
2023/03/29 11:23:38;;;;;;;11.35;5.57;;;;;;;11.57;90.36;101349.38;5060660;28;20090;-80
2023/03/29 11:26:07;;;;;;;12.90;5.60;;;;;;;11.61;89.20;101351.06;5071803;28;20435;-81
2023/03/29 11:28:38;;;;;;;10.38;6.03;;;;;;;11.73;90.75;101342.00;5055439;28;20063;-80
2023/03/29 11:31:16;;;;;;;12.85;5.95;;;;;;;11.76;88.83;101349.91;5073072;28;20044;-80
2023/03/29 11:33:53;;;;;;;9.40;5.32;;;;;;;11.75;88.65;101363.22;5061893;28;20040;-80
2023/03/29 11:36:29;;;;;;;8.75;4.68;;;;;;;11.77;88.29;101366.69;5067517;28;20135;-81
2023/03/29 11:39:00;;;;;;;12.30;4.93;;;;;;;11.80;87.74;101366.66;5061191;28;20038;-80
2023/03/29 11:41:31;;;;;;;15.15;5.97;;;;;;;11.77;88.65;101372.91;5073098;28;20047;-80
2023/03/29 11:44:03;;;;;;;8.55;5.05;;;;;;;11.79;89.39;101357.84;5069244;28;20483;-80
2023/03/29 11:46:34;;;;;;;12.27;5.53;;;;;;;11.87;88.12;101359.47;5062222;28;20060;-80
2023/03/29 11:49:08;;;;;;;9.07;5.18;;;;;;;11.94;88.31;101346.09;5068211;28;20451;-80
2023/03/29 11:51:45;;;;;;;9.38;5.00;;;;;;;12.10;87.87;101345.78;5073011;28;20123;-80
2023/03/29 11:54:20;;;;;;;11.65;5.50;;;;;;;12.24;87.47;101349.03;5061000;28;20040;-80
2023/03/29 11:56:45;;;;;;;9.55;5.00;;;;;;;12.31;86.68;101345.31;5071954;28;20064;-79
2023/03/29 11:59:21;;;;;;;8.23;5.32;;;;;;;12.33;86.26;101332.00;5072987;28;20048;-80
2023/03/29 12:02:07;;;;;;;8.63;4.65;;;;;;;12.39;86.07;101343.41;5070652;28;20082;-75